Time;durP1;ratioP1;P1;durP2;ratioP2;P2;SDS_P1;SDS_P2;PMS_P1;PMS_P2;Temp;Humidity;BMP_temperature;BMP_pressure;BME280_temperature;BME280_humidity;BME280_pressure;Samples;Min_cycle;Max_cycle;Signal;HPM_P1;HPM_P2
2023/01/05 10:42:12;;;;;;;33.23;5.03;;;10.50;99.90;;;;;;5095467;27;1210925;-69
2023/01/05 10:44:38;;;;;;;36.72;7.20;;;;;;;;;;5094385;28;20278;-68
2023/01/05 10:47:08;;;;;;;32.50;7.00;;;10.50;99.90;;;;;;5101912;28;20111;-69
2023/01/05 10:49:34;;;;;;;40.93;6.30;;;10.90;99.90;;;;;;5103364;28;20404;-69
2023/01/05 10:52:00;;;;;;;37.73;5.57;;;11.40;99.90;;;;;;5094322;28;20023;-69
2023/01/05 10:54:36;;;;;;;43.07;6.37;;;10.90;99.90;;;;;;5103778;28;20027;-69
2023/01/05 10:57:29;;;;;;;34.10;6.20;;;11.10;99.90;;;;;;5108229;28;20403;-69
2023/01/05 10:59:58;;;;;;;36.33;6.97;;;10.90;99.90;;;;;;5123340;28;20507;-69
2023/01/05 11:02:26;;;;;;;35.23;7.97;;;11.00;99.90;;;;;;5112910;28;20019;-69
2023/01/05 11:04:53;;;;;;;49.00;7.30;;;11.30;99.90;;;;;;5113138;27;20059;-69
2023/01/05 11:07:19;;;;;;;22.00;6.47;;;;;;;;;;5104420;28;20019;-69
2023/01/05 11:09:47;;;;;;;44.33;7.37;;;11.10;99.90;;;;;;5116571;28;20036;-70
2023/01/05 11:12:24;;;;;;;27.90;6.40;;;11.30;99.90;;;;;;5107267;28;20035;-69
2023/01/05 11:14:55;;;;;;;29.70;6.60;;;11.40;99.90;;;;;;5106700;28;20422;-69
2023/01/05 11:17:24;;;;;;;32.23;5.67;;;12.30;99.90;;;;;;5092945;28;20019;-68
2023/01/05 11:19:52;;;;;;;44.90;10.43;;;11.40;99.90;;;;;;5087215;28;20032;-68
2023/01/05 11:22:34;;;;;;;36.95;7.32;;;11.40;99.90;;;;;;5100788;28;20484;-68
2023/01/05 11:25:14;;;;;;;36.60;7.68;;;11.60;99.90;;;;;;5106928;28;20026;-68
2023/01/05 11:27:40;;;;;;;33.70;5.40;;;11.50;99.90;;;;;;5101787;28;20062;-68
2023/01/05 11:30:14;;;;;;;43.72;5.70;;;11.80;99.90;;;;;;5086652;28;20032;-68
2023/01/05 11:32:45;;;;;;;34.88;7.15;;;11.60;99.90;;;;;;5086250;28;20469;-68
2023/01/05 11:35:28;;;;;;;32.75;5.78;;;11.60;99.90;;;;;;5086805;28;20545;-69
2023/01/05 11:37:54;;;;;;;30.25;5.25;;;11.80;99.90;;;;;;5097226;28;20118;-69
2023/01/05 11:40:26;;;;;;;35.42;7.07;;;11.50;99.90;;;;;;5085133;28;20056;-69
2023/01/05 11:42:51;;;;;;;28.38;6.88;;;11.70;99.90;;;;;;5087142;28;20099;-68
2023/01/05 11:45:27;;;;;;;34.13;6.93;;;11.90;99.90;;;;;;5086022;28;20714;-69
2023/01/05 11:47:58;;;;;;;27.88;6.00;;;12.00;99.90;;;;;;5086273;28;20024;-68
2023/01/05 11:50:25;;;;;;;37.97;8.50;;;11.80;99.90;;;;;;5086899;28;20027;-69
2023/01/05 11:53:01;;;;;;;38.58;7.40;;;12.00;99.90;;;;;;5073922;28;20024;-68
2023/01/05 11:55:37;;;;;;;36.80;7.28;;;12.10;99.90;;;;;;5085895;28;20081;-69
2023/01/05 11:58:16;;;;;;;38.53;7.15;;;11.80;99.90;;;;;;5073563;28;20028;-68
2023/01/05 12:00:57;;;;;;;38.17;7.32;;;11.80;99.90;;;;;;5072859;28;20064;-68
2023/01/05 12:03:40;;;;;;;29.70;5.07;;;11.50;99.90;;;;;;5074112;28;20078;-68
2023/01/05 12:06:30;;;;;;;35.83;5.97;;;12.10;99.90;;;;;;5076079;28;20133;-68
2023/01/05 12:09:23;;;;;;;41.93;7.03;;;12.10;99.90;;;;;;5090165;28;20026;-69
2023/01/05 12:11:49;;;;;;;21.00;5.83;;;11.70;99.90;;;;;;5099663;28;20032;-69
2023/01/05 12:14:27;;;;;;;33.20;7.05;;;12.20;99.90;;;;;;5088285;28;20020;-69
2023/01/05 12:16:56;;;;;;;32.30;5.90;;;12.10;99.90;;;;;;5088269;28;20097;-69
2023/01/05 12:19:45;;;;;;;27.00;6.72;;;12.20;99.90;;;;;;5086105;28;20028;-68
2023/01/05 12:22:23;;;;;;;36.70;6.93;;;12.20;99.90;;;;;;5081791;28;20020;-69
2023/01/05 12:24:51;;;;;;;26.52;5.28;;;12.10;99.90;;;;;;5088789;28;20020;-69
2023/01/05 12:27:43;;;;;;;30.13;7.05;;;12.20;99.90;;;;;;5091760;28;20031;-69
2023/01/05 12:30:24;;;;;;;35.38;7.82;;;11.80;99.90;;;;;;5087796;28;20036;-68
2023/01/05 12:33:02;;;;;;;38.92;7.47;;;12.00;99.90;;;;;;5085743;28;20031;-69
2023/01/05 12:35:59;;;;;;;40.17;6.63;;;12.10;99.90;;;;;;5085914;28;20031;-69
2023/01/05 12:38:35;;;;;;;24.33;5.60;;;11.90;99.90;;;;;;5087709;28;20036;-69
2023/01/05 12:41:32;;;;;;;30.65;6.70;;;11.80;99.90;;;;;;5089667;28;20048;-69
2023/01/05 12:44:12;;;;;;;24.25;5.68;;;12.10;99.90;;;;;;5087364;28;20073;-69
2023/01/05 12:46:56;;;;;;;26.52;6.57;;;12.20;99.90;;;;;;5091242;28;20534;-69
2023/01/05 12:49:36;;;;;;;25.10;6.00;;;12.90;99.90;;;;;;5093955;28;20023;-71
2023/01/05 12:52:16;;;;;;;32.33;6.57;;;12.60;99.90;;;;;;5081200;28;20048;-71
2023/01/05 12:55:01;;;;;;;31.80;6.45;;;12.40;99.90;;;;;;5085202;28;20028;-70
2023/01/05 12:58:00;;;;;;;30.75;6.28;;;12.80;99.90;;;;;;5080844;28;20501;-70
2023/01/05 13:00:30;;;;;;;23.95;5.07;;;12.70;99.90;;;;;;5073505;28;20051;-69
2023/01/05 13:03:03;;;;;;;25.08;4.78;;;12.70;99.90;;;;;;5082466;28;20028;-71
2023/01/05 13:05:40;;;;;;;;;;;12.90;99.90;;;;;;5075563;28;20103;-70
2023/01/05 13:08:16;;;;;;;37.55;7.45;;;12.00;99.90;;;;;;5091110;28;19908;-70
2023/01/05 13:10:56;;;;;;;32.05;6.35;;;11.90;99.90;;;;;;5079715;28;20107;-70
2023/01/05 13:13:31;;;;;;;26.10;5.47;;;12.00;99.90;;;;;;5069983;28;20029;-70
2023/01/05 13:16:25;;;;;;;23.50;6.20;;;11.80;99.90;;;;;;5086285;28;20107;-69
2023/01/05 13:19:13;;;;;;;31.38;5.15;;;11.80;99.90;;;;;;5078846;28;20570;-69
2023/01/05 13:21:42;;;;;;;26.58;7.18;;;11.90;99.90;;;;;;5083170;28;20036;-69
2023/01/05 13:24:16;;;;;;;32.97;6.70;;;12.20;99.90;;;;;;5089444;28;20028;-69
2023/01/05 13:26:42;;;;;;;23.90;6.53;;;12.00;99.90;;;;;;5089730;28;20076;-69
2023/01/05 13:29:25;;;;;;;49.88;7.50;;;11.90;99.90;;;;;;5078168;28;20029;-69
2023/01/05 13:31:50;;;;;;;28.88;5.78;;;11.60;99.90;;;;;;5071845;28;20524;-69
2023/01/05 13:34:41;;;;;;;30.33;6.13;;;11.50;99.90;;;;;;5093966;28;20100;-69
2023/01/05 13:37:35;;;;;;;35.75;6.38;;;11.90;99.90;;;;;;5087665;28;20069;-69
2023/01/05 13:40:23;;;;;;;23.40;6.13;;;11.90;99.90;;;;;;5100682;28;20028;-69
2023/01/05 13:43:12;;;;;;;26.33;4.93;;;12.10;99.90;;;;;;4989616;28;20096;-69
2023/01/05 13:45:58;;;;;;;36.47;5.40;;;12.40;99.90;;;;;;5015608;28;20022;-68
2023/01/05 13:48:51;;;;;;;26.20;5.80;;;12.20;99.90;;;;;;5008397;28;20033;-68
2023/01/05 13:51:50;;;;;;;26.65;4.97;;;11.90;99.90;;;;;;5017405;28;20068;-68
2023/01/05 13:54:27;;;;;;;18.00;4.32;;;11.80;99.90;;;;;;5012246;28;20069;-68
2023/01/05 13:56:53;;;;;;;34.30;5.72;;;12.10;99.90;;;;;;5024467;28;20022;-68
2023/01/05 13:59:26;;;;;;;32.05;6.63;;;11.80;99.90;;;;;;5015419;28;20068;-69
2023/01/05 14:01:54;;;;;;;29.58;5.85;;;11.90;99.90;;;;;;4992196;28;20113;-69
2023/01/05 14:04:27;;;;;;;35.22;6.00;;;11.80;99.90;;;;;;5001659;28;20493;-69
2023/01/05 14:07:14;;;;;;;25.15;6.32;;;11.70;99.90;;;;;;4995677;28;20109;-69
2023/01/05 14:09:52;;;;;;;27.77;5.47;;;11.90;99.90;;;;;;5020164;28;20018;-69
2023/01/05 14:12:18;;;;;;;30.50;4.72;;;11.70;99.90;;;;;;5007670;28;20029;-69
2023/01/05 14:15:07;;;;;;;31.17;5.43;;;11.70;99.90;;;;;;4990305;28;20027;-69
2023/01/05 14:17:52;;;;;;;33.67;5.88;;;12.00;99.90;;;;;;5002994;28;20021;-69
2023/01/05 14:20:34;;;;;;;23.80;4.70;;;11.60;99.90;;;;;;5068982;28;20043;-68
2023/01/05 14:23:21;;;;;;;28.90;5.35;;;11.70;99.90;;;;;;5077930;28;20039;-69
2023/01/05 14:25:51;;;;;;;31.13;6.70;;;11.60;99.90;;;;;;5080830;28;20144;-69
2023/01/05 14:28:29;;;;;;;31.63;6.45;;;11.60;99.90;;;;;;5082674;28;20038;-68
2023/01/05 14:31:10;;;;;;;32.80;6.13;;;11.70;99.90;;;;;;5086814;28;20033;-68
2023/01/05 14:33:47;;;;;;;30.17;5.70;;;11.50;99.90;;;;;;5081676;28;20020;-68
2023/01/05 14:36:41;;;;;;;32.35;7.25;;;11.40;99.90;;;;;;5077706;28;20070;-68
2023/01/05 14:39:19;;;;;;;29.07;6.37;;;11.40;99.90;;;;;;5073941;28;20107;-69
2023/01/05 14:42:26;;;;;;;39.80;6.30;;;11.30;99.90;;;;;;5075149;28;20334;-68
2023/01/05 14:45:05;;;;;;;30.65;5.68;;;11.30;99.90;;;;;;5042016;28;20137;-68
2023/01/05 14:47:45;;;;;;;26.75;4.57;;;11.30;99.90;;;;;;5076839;28;20359;-68
2023/01/05 14:50:31;;;;;;;30.38;6.28;;;11.80;99.90;;;;;;5078023;28;20048;-69
2023/01/05 14:53:10;;;;;;;35.95;6.60;;;11.40;99.90;;;;;;5080975;28;20489;-70
2023/01/05 14:55:58;;;;;;;35.95;6.68;;;11.40;99.90;;;;;;5075186;28;20012;-69
2023/01/05 14:58:35;;;;;;;39.55;8.73;;;11.20;99.90;;;;;;5065870;28;20027;-68
2023/01/05 15:01:18;;;;;;;35.08;6.15;;;11.30;99.90;;;;;;5078611;28;20423;-69
2023/01/05 15:04:03;;;;;;;33.03;6.43;;;11.30;99.90;;;;;;5075926;28;20021;-69
2023/01/05 15:06:59;;;;;;;41.83;6.68;;;11.10;99.90;;;;;;5076765;28;20023;-69
2023/01/05 15:09:48;;;;;;;35.40;5.80;;;11.30;99.90;;;;;;5080759;28;20050;-69
2023/01/05 15:12:16;;;;;;;37.80;6.15;;;11.10;99.90;;;;;;5089858;28;20047;-69
2023/01/05 15:14:59;;;;;;;36.55;7.07;;;11.20;99.90;;;;;;5085139;28;20479;-69
2023/01/05 15:18:00;;;;;;;37.80;6.75;;;11.30;99.90;;;;;;5107885;28;20529;-69
2023/01/05 15:20:47;;;;;;;29.25;6.47;;;11.20;99.90;;;;;;5077632;28;20566;-69
2023/01/05 15:23:50;;;;;;;30.25;6.70;;;11.60;99.90;;;;;;5090218;28;20404;-69
2023/01/05 15:26:34;;;;;;;30.88;5.30;;;11.10;99.90;;;;;;5091498;28;20042;-69
2023/01/05 15:29:40;;;;;;;28.00;6.95;;;10.70;99.90;;;;;;5098128;28;20058;-69
2023/01/05 15:32:17;;;;;;;26.77;6.65;;;11.30;99.90;;;;;;5105356;28;20031;-69
2023/01/05 15:35:15;;;;;;;40.28;7.10;;;11.20;99.90;;;;;;5106012;28;20544;-69
2023/01/05 15:37:41;;;;;;;37.65;5.47;;;11.10;99.90;;;;;;5013420;28;20030;-69
2023/01/05 15:40:27;;;;;;;43.17;7.30;;;11.10;99.90;;;;;;5012146;28;20037;-69
2023/01/05 15:42:58;;;;;;;32.05;7.07;;;11.10;99.90;;;;;;5008409;28;20048;-69
2023/01/05 15:45:31;;;;;;;35.63;7.38;;;11.00;99.90;;;;;;5012028;28;20033;-69
2023/01/05 15:48:04;;;;;;;30.60;6.72;;;10.90;99.90;;;;;;5010152;28;20033;-69
2023/01/05 15:50:42;;;;;;;40.55;7.60;;;11.20;99.90;;;;;;5014060;28;20037;-69
2023/01/05 15:53:26;;;;;;;34.63;7.37;;;11.10;99.90;;;;;;5018084;28;20491;-69
2023/01/05 15:55:52;;;;;;;32.97;6.32;;;11.10;99.90;;;;;;5015824;28;20052;-69
2023/01/05 15:58:19;;;;;;;33.85;7.47;;;11.10;99.90;;;;;;5013503;28;20429;-69
2023/01/05 16:01:06;;;;;;;31.85;5.95;;;11.40;99.90;;;;;;5021178;28;20484;-69
2023/01/05 16:03:35;;;;;;;30.95;6.15;;;11.10;99.90;;;;;;5023815;28;20022;-69
2023/01/05 16:06:05;;;;;;;35.70;7.35;;;11.10;99.90;;;;;;5014363;28;20030;-69
2023/01/05 16:08:34;;;;;;;28.50;6.63;;;11.00;99.90;;;;;;5012820;28;20399;-69
2023/01/05 16:11:04;;;;;;;30.92;7.43;;;11.10;99.90;;;;;;5011803;28;20021;-69
2023/01/05 16:13:41;;;;;;;37.35;7.93;;;11.00;99.90;;;;;;5064381;28;20038;-69
2023/01/05 16:16:23;;;;;;;38.20;7.07;;;11.00;99.90;;;;;;5105313;28;20024;-71
2023/01/05 16:18:53;;;;;;;38.50;7.80;;;10.90;99.90;;;;;;5092572;28;20023;-71
2023/01/05 16:21:42;;;;;;;26.35;5.97;;;10.90;99.90;;;;;;5088312;28;20034;-71
2023/01/05 16:24:29;;;;;;;40.55;8.15;;;11.10;99.90;;;;;;5086440;28;20031;-72
2023/01/05 16:26:56;;;;;;;32.75;7.10;;;11.00;99.90;;;;;;5080448;28;20480;-71
2023/01/05 16:29:27;;;;;;;50.15;8.07;;;10.90;99.90;;;;;;5084788;28;20103;-71
2023/01/05 16:31:54;;;;;;;33.60;6.20;;;10.80;99.90;;;;;;5083636;28;20028;-71
2023/01/05 16:34:28;;;;;;;38.25;6.70;;;10.60;99.90;;;;;;5089353;28;20381;-71
2023/01/05 16:36:59;;;;;;;34.42;6.75;;;10.30;99.90;;;;;;5088960;28;20116;-71
2023/01/05 16:39:30;;;;;;;34.50;6.03;;;10.60;99.90;;;;;;5086860;28;20446;-71
2023/01/05 16:44:56;;;;;;;26.40;4.68;;;10.60;99.90;;;;;;5082327;28;20027;-71
2023/01/05 16:47:39;;;;;;;40.03;6.47;;;10.40;99.90;;;;;;5074523;28;20104;-72
2023/01/05 16:50:36;;;;;;;22.20;4.33;;;10.40;99.90;;;;;;5078603;28;20107;-71
2023/01/05 16:53:04;;;;;;;29.73;5.90;;;10.60;99.90;;;;;;5051147;28;20048;-71
2023/01/05 16:55:36;;;;;;;31.93;6.40;;;10.90;99.90;;;;;;5076426;28;20028;-71
2023/01/05 16:58:05;;;;;;;28.30;6.27;;;10.50;99.90;;;;;;5097591;28;20030;-71
2023/01/05 17:00:36;;;;;;;26.23;6.40;;;10.60;99.90;;;;;;5084436;28;20024;-71
2023/01/05 17:03:21;;;;;;;29.05;5.47;;;10.40;99.90;;;;;;5087609;28;20381;-71
2023/01/05 17:05:51;;;;;;;35.37;7.77;;;10.50;99.90;;;;;;5086789;28;20468;-71
2023/01/05 17:08:23;;;;;;;36.93;8.77;;;10.60;99.90;;;;;;5084460;28;20032;-71
2023/01/05 17:10:49;;;;;;;35.70;8.13;;;10.50;99.90;;;;;;5091067;28;20082;-71
2023/01/05 17:13:20;;;;;;;35.92;8.45;;;10.50;99.90;;;;;;5071408;28;20408;-71
2023/01/05 17:15:48;;;;;;;41.03;9.70;;;10.30;99.90;;;;;;5071720;28;20032;-71
2023/01/05 17:18:21;;;;;;;38.80;9.00;;;10.60;99.90;;;;;;5071660;28;20032;-71
2023/01/05 17:20:48;;;;;;;35.13;9.98;;;10.50;99.90;;;;;;5075375;28;20078;-71
2023/01/05 17:23:22;;;;;;;34.53;9.83;;;10.70;99.90;;;;;;5077542;28;20032;-71
2023/01/05 17:25:50;;;;;;;49.67;11.80;;;10.60;99.90;;;;;;5086066;28;20591;-71
2023/01/05 17:28:16;;;;;;;40.13;10.73;;;10.60;99.90;;;;;;5081046;28;20473;-71
2023/01/05 17:30:42;;;;;;;36.10;10.13;;;10.50;99.90;;;;;;5074069;28;20042;-71
2023/01/05 17:33:08;;;;;;;44.88;11.70;;;10.70;99.90;;;;;;5080898;28;20477;-71
2023/01/05 17:35:34;;;;;;;39.70;10.93;;;10.60;99.90;;;;;;5084640;28;20048;-71
2023/01/05 17:38:00;;;;;;;41.97;11.25;;;10.30;99.90;;;;;;5082322;28;20036;-71
2023/01/05 17:40:27;;;;;;;30.90;10.00;;;;;;;;;;5084367;28;20043;-70
2023/01/05 17:42:53;;;;;;;22.30;10.18;;;10.90;99.90;;;;;;5076747;28;20024;-71
2023/01/05 17:45:22;;;;;;;27.45;11.25;;;10.70;99.90;;;;;;5083803;28;20170;-70
2023/01/05 17:47:49;;;;;;;32.03;11.02;;;10.60;99.90;;;;;;5085148;28;20020;-70
2023/01/05 17:50:35;;;;;;;29.88;11.77;;;10.90;99.90;;;;;;5084636;28;20020;-70
2023/01/05 17:53:02;;;;;;;27.05;10.40;;;10.60;99.90;;;;;;5090153;28;20046;-70
2023/01/05 17:55:29;;;;;;;28.05;11.77;;;10.70;99.90;;;;;;5083102;28;20054;-70
2023/01/05 17:57:56;;;;;;;35.53;12.13;;;10.70;99.90;;;;;;5078157;28;20043;-71
2023/01/05 18:00:23;;;;;;;33.93;13.23;;;10.60;99.90;;;;;;5089876;28;20059;-70
2023/01/05 18:02:50;;;;;;;36.60;12.27;;;10.70;99.90;;;;;;5080010;28;20090;-71
2023/01/05 18:05:16;;;;;;;27.73;12.80;;;10.60;99.90;;;;;;5086424;28;20028;-70
2023/01/05 18:07:42;;;;;;;28.60;11.73;;;10.60;99.90;;;;;;5087704;28;20085;-70
2023/01/05 18:10:13;;;;;;;39.73;13.87;;;10.70;99.90;;;;;;5082537;28;20107;-69
2023/01/05 18:12:39;;;;;;;39.17;14.47;;;10.60;99.90;;;;;;5080098;28;20051;-71
2023/01/05 18:15:05;;;;;;;35.33;15.47;;;10.70;99.90;;;;;;5078073;28;20064;-70
2023/01/05 18:17:31;;;;;;;32.70;14.70;;;10.60;99.90;;;;;;5072246;28;20038;-71
2023/01/05 18:19:57;;;;;;;43.05;16.50;;;10.60;99.90;;;;;;5069046;28;20505;-70
2023/01/05 18:22:22;;;;;;;27.73;13.00;;;10.50;99.90;;;;;;5076076;28;20103;-71
2023/01/05 18:24:48;;;;;;;34.43;15.47;;;10.60;99.90;;;;;;5102062;28;20021;-70
2023/01/05 18:27:14;;;;;;;34.50;16.90;;;10.60;99.90;;;;;;5096744;28;20024;-70
2023/01/05 18:29:40;;;;;;;41.30;16.30;;;10.60;99.90;;;;;;5076027;28;20067;-71
2023/01/05 18:32:08;;;;;;;45.30;17.40;;;9.60;99.90;;;;;;5081397;28;20395;-70
2023/01/05 18:34:34;;;;;;;30.00;15.20;;;10.70;99.90;;;;;;5073789;28;20021;-71
2023/01/05 18:37:00;;;;;;;45.38;17.17;;;10.70;99.90;;;;;;5073860;28;20028;-70
2023/01/05 18:39:26;;;;;;;45.35;18.58;;;;;;;;;;5101453;28;20515;-71
2023/01/05 18:41:53;;;;;;;42.25;18.05;;;10.60;99.90;;;;;;5087571;28;20048;-70
2023/01/05 18:44:18;;;;;;;35.35;17.50;;;10.70;99.90;;;;;;5082608;28;20036;-71
2023/01/05 18:46:44;;;;;;;31.27;16.25;;;10.80;99.90;;;;;;5079261;28;20046;-71
2023/01/05 18:49:14;;;;;;;44.50;18.80;;;10.70;99.90;;;;;;5088132;28;21496;-70
2023/01/05 18:51:39;;;;;;;39.42;19.58;;;10.80;99.90;;;;;;5100228;28;20016;-70
2023/01/05 18:54:06;;;;;;;45.92;18.73;;;10.90;99.90;;;;;;5077184;28;20042;-70
2023/01/05 18:56:32;;;;;;;40.70;17.77;;;10.80;99.90;;;;;;5087696;28;20384;-71
2023/01/05 18:58:58;;;;;;;40.08;18.17;;;10.90;99.90;;;;;;5098982;28;20388;-70
2023/01/05 19:01:24;;;;;;;46.33;19.63;;;10.60;99.90;;;;;;5093227;28;20533;-71
2023/01/05 19:03:52;;;;;;;39.72;18.33;;;10.80;99.90;;;;;;5112890;28;20024;-70
2023/01/05 19:06:20;;;;;;;33.17;14.73;;;10.80;99.90;;;;;;5102016;28;20438;-70
2023/01/05 19:08:49;;;;;;;41.43;19.03;;;10.90;99.90;;;;;;5100312;28;20028;-70
2023/01/05 19:11:15;;;;;;;37.97;18.85;;;10.90;99.90;;;;;;5095042;28;20024;-70
2023/01/05 19:13:43;;;;;;;40.83;19.33;;;10.80;99.90;;;;;;5079540;28;20027;-71
2023/01/05 19:16:10;;;;;;;42.15;19.73;;;11.00;99.90;;;;;;5081339;28;20384;-71
2023/01/05 19:18:36;;;;;;;43.08;21.35;;;10.90;99.90;;;;;;5074460;28;20048;-71
2023/01/05 19:21:02;;;;;;;34.60;21.02;;;;;;;;;;5091866;28;20085;-70
2023/01/05 19:23:27;;;;;;;43.35;21.02;;;10.80;99.90;;;;;;5103104;28;20028;-70
2023/01/05 19:26:03;;;;;;;42.55;20.85;;;10.80;99.90;;;;;;5094344;27;20174;-71
2023/01/05 19:28:29;;;;;;;45.95;23.00;;;10.90;99.90;;;;;;5103886;28;20068;-70
2023/01/05 19:31:16;;;;;;;51.80;24.30;;;10.80;99.90;;;;;;5103866;28;20115;-70
2023/01/05 19:33:42;;;;;;;43.75;22.60;;;11.10;99.90;;;;;;5096461;28;20092;-70
2023/01/05 19:36:09;;;;;;;50.08;24.55;;;11.10;99.90;;;;;;5077119;28;20484;-71
2023/01/05 19:38:36;;;;;;;49.78;25.08;;;10.90;99.90;;;;;;5079892;28;20414;-70
2023/01/05 19:41:21;;;;;;;45.40;23.92;;;11.00;99.90;;;;;;5080909;28;20418;-70
2023/01/05 19:43:49;;;;;;;50.60;25.13;;;10.80;99.90;;;;;;5088984;28;20027;-70
2023/01/05 19:46:16;;;;;;;44.67;24.40;;;11.10;99.90;;;;;;5094394;28;20763;-70
2023/01/05 19:48:42;;;;;;;34.97;22.53;;;11.20;99.90;;;;;;5098805;28;20021;-70
2023/01/05 19:51:19;;;;;;;40.50;23.52;;;11.30;99.90;;;;;;5098057;28;20046;-71
2023/01/05 19:53:50;;;;;;;50.78;25.92;;;11.10;99.90;;;;;;5108939;28;20012;-70
2023/01/05 19:56:15;;;;;;;45.90;26.50;;;11.10;99.90;;;;;;5094302;28;20028;-70
2023/01/05 19:58:42;;;;;;;45.05;28.23;;;11.10;99.90;;;;;;5084977;28;20040;-71
2023/01/05 20:01:10;;;;;;;49.55;28.95;;;11.00;99.90;;;;;;5083873;28;20156;-70
2023/01/05 20:03:35;;;;;;;48.87;28.10;;;11.30;99.90;;;;;;5080891;28;20040;-70
2023/01/05 20:06:19;;;;;;;48.30;27.48;;;11.30;99.90;;;;;;5076482;28;20033;-70
2023/01/05 20:08:52;;;;;;;48.00;28.20;;;10.90;99.90;;;;;;5079976;28;20114;-70
2023/01/05 20:11:34;;;;;;;41.28;25.33;;;11.10;99.90;;;;;;5092071;28;20773;-71
2023/01/05 20:14:04;;;;;;;46.20;27.73;;;11.20;99.90;;;;;;5083960;28;20041;-70
2023/01/05 20:16:30;;;;;;;42.72;26.45;;;;;;;;;;5092800;28;20042;-70
2023/01/05 20:18:56;;;;;;;41.33;27.17;;;11.10;99.90;;;;;;5094560;28;20114;-70
2023/01/05 20:21:22;;;;;;;47.78;27.23;;;11.10;99.90;;;;;;5081545;28;20096;-70
2023/01/05 20:23:47;;;;;;;44.08;27.27;;;11.10;99.90;;;;;;5084710;28;20103;-70
2023/01/05 20:26:15;;;;;;;46.47;29.75;;;11.20;99.90;;;;;;5086293;28;20075;-70
2023/01/05 20:28:42;;;;;;;44.75;27.30;;;11.20;99.90;;;;;;5079919;28;20020;-70
2023/01/05 20:31:34;;;;;;;46.85;27.17;;;11.10;99.90;;;;;;5079226;28;20029;-71
2023/01/05 20:34:04;;;;;;;41.53;27.88;;;10.80;99.90;;;;;;5077932;28;20035;-71
2023/01/05 20:36:30;;;;;;;36.90;24.48;;;11.30;99.90;;;;;;5077711;28;20477;-71
2023/01/05 20:38:57;;;;;;;41.38;27.73;;;11.20;99.90;;;;;;5078198;28;20059;-71
2023/01/05 20:41:29;;;;;;;38.00;25.90;;;11.30;99.90;;;;;;5077583;28;20448;-71
2023/01/05 20:43:56;;;;;;;36.22;24.63;;;11.40;99.90;;;;;;5088297;28;20035;-71
2023/01/05 20:46:27;;;;;;;41.55;28.27;;;11.20;99.90;;;;;;5095022;28;20118;-71
2023/01/05 20:48:53;;;;;;;40.17;24.77;;;10.80;99.90;;;;;;5081368;28;20043;-71
2023/01/05 20:51:20;;;;;;;39.97;26.40;;;11.60;99.90;;;;;;5084547;28;20103;-71
2023/01/05 20:53:47;;;;;;;37.70;24.75;;;11.50;99.90;;;;;;5079299;28;20500;-71
2023/01/05 20:56:15;;;;;;;35.55;25.67;;;11.20;99.90;;;;;;5085050;28;20376;-71
2023/01/05 20:58:42;;;;;;;42.88;25.65;;;10.90;99.90;;;;;;5078360;28;20035;-71
2023/01/05 21:01:09;;;;;;;36.35;24.65;;;11.10;99.90;;;;;;5079916;28;20032;-71
2023/01/05 21:03:35;;;;;;;39.00;25.23;;;11.40;99.90;;;;;;5084437;28;20028;-70
2023/01/05 21:06:02;;;;;;;33.17;22.15;;;11.20;99.90;;;;;;5084786;28;20043;-71
2023/01/05 21:08:27;;;;;;;31.92;21.98;;;10.80;99.90;;;;;;5078221;28;20024;-71
2023/01/05 21:10:56;;;;;;;33.50;21.05;;;11.20;99.90;;;;;;5090041;28;20028;-71
2023/01/05 21:13:22;;;;;;;31.17;19.73;;;11.10;99.90;;;;;;5086075;28;20025;-70
2023/01/05 21:16:03;;;;;;;26.50;16.95;;;11.00;99.90;;;;;;5082337;28;20055;-71
2023/01/05 21:18:30;;;;;;;31.02;18.95;;;11.10;99.90;;;;;;5082920;28;20013;-71
2023/01/05 21:20:56;;;;;;;28.60;18.08;;;11.00;99.90;;;;;;5073467;28;20438;-71
2023/01/05 21:23:23;;;;;;;28.27;16.63;;;11.00;99.90;;;;;;5080037;28;20028;-71
2023/01/05 21:25:50;;;;;;;23.98;14.38;;;10.90;99.90;;;;;;5074271;28;20035;-71
2023/01/05 21:28:17;;;;;;;17.63;11.90;;;11.10;99.90;;;;;;5079756;28;20486;-71
2023/01/05 21:30:43;;;;;;;21.73;11.48;;;11.10;99.90;;;;;;5082132;28;20031;-71
2023/01/05 21:33:09;;;;;;;23.98;10.70;;;10.90;99.90;;;;;;5084013;28;20535;-70
2023/01/05 21:35:35;;;;;;;15.35;9.00;;;11.10;99.90;;;;;;5085407;28;20144;-71
2023/01/05 21:38:01;;;;;;;14.32;8.38;;;11.10;99.90;;;;;;5080092;28;20035;-70
2023/01/05 21:40:27;;;;;;;20.48;9.13;;;11.00;99.90;;;;;;5077828;28;20545;-71
2023/01/05 21:42:55;;;;;;;14.07;7.97;;;11.10;99.90;;;;;;5085610;28;20028;-71
2023/01/05 21:45:21;;;;;;;15.48;7.97;;;11.00;99.90;;;;;;5083929;28;20017;-71
2023/01/05 21:47:51;;;;;;;14.83;6.93;;;11.10;99.90;;;;;;5080883;28;20024;-71
2023/01/05 21:58:32;;;;;;;11.55;6.68;;;11.00;99.90;;;;;;5083546;28;20074;-71
2023/01/05 22:00:59;;;;;;;10.45;5.93;;;11.20;99.90;;;;;;5079618;28;20024;-71
2023/01/05 22:03:24;;;;;;;14.60;6.88;;;11.20;99.90;;;;;;5077255;28;20020;-71
2023/01/05 22:05:50;;;;;;;14.93;8.27;;;11.10;99.90;;;;;;5082174;28;20024;-71
2023/01/05 22:08:16;;;;;;;14.27;8.30;;;11.00;99.90;;;;;;5075577;28;20016;-71
2023/01/05 22:10:42;;;;;;;18.08;8.68;;;11.10;99.90;;;;;;5085092;28;20027;-71
2023/01/05 22:13:07;;;;;;;14.00;8.57;;;11.10;99.90;;;;;;5084454;28;20035;-70
2023/01/05 22:15:34;;;;;;;13.85;8.65;;;11.00;99.90;;;;;;5080160;28;20129;-71
2023/01/05 22:17:59;;;;;;;13.38;6.97;;;10.90;99.90;;;;;;5072721;28;20032;-71
2023/01/05 22:20:25;;;;;;;11.80;6.88;;;10.90;99.90;;;;;;5076787;28;20044;-71
2023/01/05 22:22:50;;;;;;;11.55;5.93;;;10.90;99.90;;;;;;5072446;28;20020;-71
2023/01/05 22:25:16;;;;;;;11.20;5.75;;;11.00;99.90;;;;;;5076475;28;20023;-70
2023/01/05 22:27:41;;;;;;;13.07;6.23;;;10.90;99.90;;;;;;5077206;28;20021;-71
2023/01/05 22:30:07;;;;;;;13.83;5.00;;;10.70;99.90;;;;;;5084584;28;20028;-70
2023/01/05 22:32:36;;;;;;;13.25;6.22;;;10.90;99.90;;;;;;5075563;28;20465;-71
2023/01/05 22:35:03;;;;;;;7.47;5.00;;;11.00;99.90;;;;;;5081881;28;20522;-71
2023/01/05 22:37:29;;;;;;;6.65;4.13;;;11.00;99.90;;;;;;5071195;28;20028;-70
2023/01/05 22:39:54;;;;;;;11.73;5.70;;;11.10;99.90;;;;;;5081864;28;20024;-70
2023/01/05 22:42:20;;;;;;;8.65;3.67;;;11.00;99.90;;;;;;5087228;28;20085;-71
2023/01/05 22:44:45;;;;;;;9.82;4.57;;;11.00;99.90;;;;;;5078458;28;20044;-70
2023/01/05 22:47:11;;;;;;;8.52;4.15;;;11.10;99.90;;;;;;5081565;28;20028;-71
2023/01/05 22:49:37;;;;;;;8.80;4.95;;;10.90;99.90;;;;;;5081359;28;20043;-71
2023/01/05 22:52:03;;;;;;;11.10;4.80;;;11.10;99.90;;;;;;5088064;28;20025;-71
2023/01/05 22:54:28;;;;;;;13.57;5.57;;;11.10;99.90;;;;;;5087210;28;20016;-70
2023/01/05 22:56:54;;;;;;;13.15;5.13;;;11.00;99.90;;;;;;5081551;28;20110;-70
2023/01/05 22:59:20;;;;;;;10.60;4.77;;;11.00;99.90;;;;;;5085189;28;20529;-70
2023/01/05 23:01:46;;;;;;;9.90;5.53;;;10.90;99.90;;;;;;5088596;28;20031;-70
2023/01/05 23:04:13;;;;;;;13.52;5.63;;;11.00;99.90;;;;;;5084969;28;20016;-70
2023/01/05 23:06:41;;;;;;;8.45;4.53;;;10.90;99.90;;;;;;5082425;28;20047;-70
2023/01/05 23:09:09;;;;;;;8.10;5.45;;;11.10;99.90;;;;;;5078613;28;20053;-70
2023/01/05 23:11:37;;;;;;;10.63;5.43;;;10.80;99.90;;;;;;5082944;28;20028;-70
2023/01/05 23:14:05;;;;;;;11.00;6.17;;;11.10;99.90;;;;;;5084216;28;20035;-70
2023/01/05 23:16:33;;;;;;;11.37;6.10;;;11.10;99.90;;;;;;5087997;28;20086;-70
2023/01/05 23:18:58;;;;;;;9.63;6.33;;;11.00;99.90;;;;;;5082678;28;20020;-70
2023/01/05 23:21:25;;;;;;;10.20;5.72;;;10.90;99.90;;;;;;5086494;28;20031;-69
2023/01/05 23:23:53;;;;;;;8.52;7.05;;;11.10;99.90;;;;;;5078182;28;20017;-70
2023/01/05 23:26:19;;;;;;;11.52;5.53;;;11.00;99.90;;;;;;5083113;28;20027;-70
2023/01/05 23:28:45;;;;;;;11.65;5.00;;;11.10;99.90;;;;;;5083588;28;20032;-70
2023/01/05 23:31:13;;;;;;;13.05;4.57;;;11.20;99.90;;;;;;5084565;28;20548;-70
2023/01/05 23:33:39;;;;;;;10.43;4.40;;;11.10;99.90;;;;;;5082720;28;20024;-70
2023/01/05 23:36:05;;;;;;;13.40;5.05;;;11.10;99.90;;;;;;5084813;28;20118;-70
2023/01/05 23:38:31;;;;;;;6.80;4.18;;;11.10;99.90;;;;;;5075180;28;20041;-70
2023/01/05 23:40:59;;;;;;;9.38;3.90;;;;;;;;;;5077204;28;20044;-70
2023/01/05 23:43:26;;;;;;;11.95;4.30;;;11.10;99.90;;;;;;5083190;28;20017;-70
2023/01/05 23:45:59;;;;;;;11.27;4.57;;;11.10;99.90;;;;;;5089481;28;20107;-69
2023/01/05 23:48:25;;;;;;;8.50;3.80;;;11.10;99.90;;;;;;5078407;28;20043;-70
2023/01/05 23:50:53;;;;;;;12.48;4.65;;;11.10;99.90;;;;;;5089791;28;20393;-70
2023/01/05 23:53:19;;;;;;;7.17;4.40;;;;;;;;;;5095655;28;20043;-70
2023/01/05 23:55:44;;;;;;;9.43;4.15;;;11.50;99.90;;;;;;5088110;28;20098;-70
2023/01/05 23:58:10;;;;;;;8.55;4.93;;;10.90;99.90;;;;;;5091823;28;20405;-70